Medley, West Virginia
Current Conditions -  °F | °C
As of 11:55 AM on Saturday 22 Nov 2014 (Local Time) from KW99 Reporting Station
Scattered Clouds Scattered Clouds  
Wind Chill: 45°   Ceiling: Unl
Heat Index: 45°   Visibility: 10mi
Dew Point: 12°   Wind: 3mph
Humidity: 27%   Direction: 70°ENE
Pressure: 30.33"   Gusts: NA
Location:  39.18°N, 79.06°W
Report Text: KW99 221655Z AUTO 07003KT 10SM SCT050 07/M11 A3033 RMK AO2 T00721110
Loading
Personal Weather Stations






























Interactive Weather Map New forecast layout! Learn more

10-Day Weather Forecast

Advertisements
Track Severe Weather on mobile